Time;durP1;ratioP1;P1;durP2;ratioP2;P2;SDS_P1;SDS_P2;PMS_P1;PMS_P2;Temp;Humidity;BMP_temperature;BMP_pressure;BME280_temperature;BME280_humidity;BME280_pressure;Samples;Min_cycle;Max_cycle;Signal;HPM_P1;HPM_P2
2024/01/25 00:00:34;;;;;;;12.50;10.90;;;;;;;1.85;100.00;99206.33;87128;278;137925;-67
2024/01/25 00:02:36;;;;;;;10.30;9.20;;;;;;;1.92;100.00;99208.15;87255;270;25194;-69
2024/01/25 00:04:38;;;;;;;13.20;9.90;;;;;;;1.96;100.00;99206.19;87086;275;136417;-68
2024/01/25 00:06:40;;;;;;;14.30;9.70;;;;;;;1.98;100.00;99201.80;87144;271;22652;-69
2024/01/25 00:08:42;;;;;;;9.60;8.70;;;;;;;1.95;100.00;99203.92;87119;270;137322;-68
2024/01/25 00:10:44;;;;;;;9.80;8.80;;;;;;;1.87;100.00;99203.08;87230;266;24187;-70
2024/01/25 00:12:45;;;;;;;9.70;8.70;;;;;;;1.85;100.00;99208.02;86966;272;136568;-70
2024/01/25 00:14:47;;;;;;;11.20;10.00;;;;;;;1.92;100.00;99207.14;87126;271;22561;-70
2024/01/25 00:16:49;;;;;;;10.30;8.90;;;;;;;1.97;100.00;99199.96;87004;268;137207;-70
2024/01/25 00:18:52;;;;;;;17.40;10.70;;;;;;;1.99;100.00;99193.95;87249;271;22563;-67
2024/01/25 00:20:54;;;;;;;12.20;9.60;;;;;;;1.96;100.00;99195.23;87193;266;136405;-67
2024/01/25 00:22:56;;;;;;;10.70;9.50;;;;;;;1.88;100.00;99194.61;87257;271;24673;-67
2024/01/25 00:24:58;;;;;;;11.50;9.90;;;;;;;1.84;100.00;99195.98;87093;268;136868;-65
2024/01/25 00:27:00;;;;;;;15.30;10.90;;;;;;;1.86;100.00;99189.55;87278;279;22565;-69
2024/01/25 00:29:01;;;;;;;12.50;10.80;;;;;;;1.95;100.00;99192.63;87060;279;136115;-69
2024/01/25 00:31:04;;;;;;;9.50;8.50;;;;;;;2.04;100.00;99194.32;87209;267;23088;-69
2024/01/25 00:33:06;;;;;;;10.20;9.20;;;;;;;2.09;100.00;99186.48;87036;272;135974;-66
2024/01/25 00:35:10;;;;;;;9.40;8.50;;;;;;;2.07;100.00;99184.61;87416;274;25117;-64
2024/01/25 00:37:12;;;;;;;12.30;10.60;;;;;;;1.99;100.00;99174.17;87236;274;135739;-66
2024/01/25 00:39:15;;;;;;;10.80;9.70;;;;;;;1.94;100.00;99177.29;87270;267;22568;-66
2024/01/25 00:41:19;;;;;;;12.20;10.40;;;;;;;2.00;100.00;99177.91;87151;272;137906;-66
2024/01/25 00:43:21;;;;;;;11.50;9.50;;;;;;;2.09;100.00;99176.41;87267;271;22549;-69
2024/01/25 00:45:24;;;;;;;11.10;9.20;;;;;;;2.14;100.00;99175.73;87126;275;136752;-65
2024/01/25 00:47:26;;;;;;;12.20;10.00;;;;;;;2.17;100.00;99167.28;87314;272;25336;-69
2024/01/25 00:49:28;;;;;;;12.00;9.80;;;;;;;2.13;100.00;99164.14;87270;275;136016;-66
2024/01/25 00:51:31;;;;;;;10.60;9.20;;;;;;;2.08;100.00;99162.85;87246;269;25226;-68
2024/01/25 00:53:34;;;;;;;11.40;10.20;;;;;;;2.13;100.00;99163.61;87109;271;136440;-66
2024/01/25 00:55:45;;;;;;;9.50;8.50;;;;;;;2.23;100.00;99157.88;87324;274;25121;-69
2024/01/25 00:57:47;;;;;;;10.90;9.80;;;;;;;2.28;100.00;99151.11;87129;271;136353;-64
2024/01/25 00:59:49;;;;;;;9.10;8.20;;;;;;;2.31;100.00;99147.13;87307;271;22576;-66
2024/01/25 01:01:53;;;;;;;10.60;9.50;;;;;;;2.29;100.00;99143.91;87008;273;135569;-67
2024/01/25 01:03:58;;;;;;;10.40;9.30;;;;;;;2.25;100.00;99141.88;87260;271;25229;-67
2024/01/25 01:06:00;;;;;;;;;;;;;;;2.25;100.00;99145.15;87193;279;136573;-65
2024/01/25 01:08:03;;;;;;;11.40;8.30;;;;;;;2.36;100.00;99139.44;88809;275;123880;-67
2024/01/25 01:10:06;;;;;;;10.70;7.90;;;;;;;2.43;100.00;99139.73;87201;271;25108;-66
2024/01/25 01:12:08;;;;;;;11.10;9.30;;;;;;;2.47;100.00;99136.11;87251;271;138506;-67
2024/01/25 01:14:10;;;;;;;10.40;9.30;;;;;;;2.45;100.00;99133.77;86971;271;23743;-66
2024/01/25 01:16:12;;;;;;;9.40;8.40;;;;;;;2.39;100.00;99132.77;87051;279;136022;-67
2024/01/25 01:18:16;;;;;;;11.60;10.40;;;;;;;2.37;100.00;99130.98;87323;279;25097;-66
2024/01/25 01:20:19;;;;;;;10.20;9.10;;;;;;;2.37;100.00;99125.83;87137;267;136277;-66
2024/01/25 01:22:21;;;;;;;9.90;8.90;;;;;;;2.48;100.00;99122.89;87246;279;25115;-65
2024/01/25 01:24:22;;;;;;;9.20;8.20;;;;;;;2.62;100.00;99122.22;87165;279;136410;-65
2024/01/25 01:26:24;;;;;;;9.60;8.60;;;;;;;2.70;100.00;99117.14;87319;271;25239;-66
2024/01/25 01:28:26;;;;;;;9.50;8.50;;;;;;;2.77;100.00;99110.05;87147;271;137727;-66
2024/01/25 01:30:28;;;;;;;10.30;8.50;;;;;;;2.77;100.00;99110.52;87281;267;22571;-67
2024/01/25 01:32:30;;;;;;;9.50;8.50;;;;;;;2.72;100.00;99107.06;87232;271;136319;-66
2024/01/25 01:34:32;;;;;;;9.20;8.30;;;;;;;2.70;100.00;99102.44;87154;267;22561;-68
2024/01/25 01:36:33;;;;;;;9.80;8.80;;;;;;;2.68;100.00;99098.76;87166;268;135736;-66
2024/01/25 01:38:35;;;;;;;7.60;6.80;;;;;;;2.76;100.00;99093.05;87268;271;22577;-66
2024/01/25 01:40:37;;;;;;;10.10;7.90;;;;;;;2.85;100.00;99091.27;87162;275;137923;-65
2024/01/25 01:42:39;;;;;;;8.60;7.50;;;;;;;2.91;100.00;99085.89;87260;271;22557;-67
2024/01/25 01:44:41;;;;;;;8.60;7.50;;;;;;;2.95;100.00;99086.06;87079;279;136291;-66
2024/01/25 01:46:43;;;;;;;10.90;8.70;;;;;;;2.92;100.00;99085.80;87250;271;25208;-65
2024/01/25 01:48:45;;;;;;;10.60;8.10;;;;;;;2.86;100.00;99082.27;87247;267;135866;-66
2024/01/25 01:50:47;;;;;;;7.80;7.10;;;;;;;2.83;100.00;99081.39;87360;267;25270;-66
2024/01/25 01:52:50;;;;;;;10.00;8.60;;;;;;;2.82;100.00;99081.61;87263;274;137232;-66
2024/01/25 01:54:51;;;;;;;8.60;7.80;;;;;;;2.91;100.00;99082.55;87382;271;22564;-66
2024/01/25 01:56:55;;;;;;;6.90;6.30;;;;;;;3.01;100.00;99077.99;87209;278;137723;-64
2024/01/25 01:59:00;;;;;;;8.80;7.30;;;;;;;3.07;100.00;99081.73;87416;278;22979;-66
2024/01/25 02:01:04;;;;;;;8.40;7.40;;;;;;;3.08;100.00;99079.65;87273;264;135584;-67
2024/01/25 02:03:06;;;;;;;6.50;5.80;;;;;;;3.07;100.00;99074.61;87545;275;22552;-65
2024/01/25 02:05:09;;;;;;;8.00;7.20;;;;;;;3.04;100.00;99075.52;87320;267;135784;-65
2024/01/25 02:07:12;;;;;;;8.70;7.40;;;;;;;2.99;100.00;99073.31;87403;266;22561;-67
2024/01/25 02:09:16;;;;;;;;;;;;;;;3.04;100.00;99071.83;87216;267;137946;-65
2024/01/25 02:11:17;;;;;;;6.90;6.30;;;;;;;3.13;100.00;99066.61;87359;267;24122;-65
2024/01/25 02:13:20;;;;;;;7.00;6.10;;;;;;;3.18;100.00;99067.34;87227;271;136868;-66
2024/01/25 02:15:22;;;;;;;8.20;7.10;;;;;;;3.18;100.00;99059.04;87440;268;22567;-67
2024/01/25 02:17:24;;;;;;;9.60;7.40;;;;;;;3.14;100.00;99058.44;87063;275;135876;-66
2024/01/25 02:19:26;;;;;;;8.20;7.30;;;;;;;3.10;100.00;99054.90;87270;279;22579;-67
2024/01/25 02:21:29;;;;;;;8.50;6.90;;;;;;;3.09;100.00;99055.66;87190;278;135981;-65
2024/01/25 02:23:30;;;;;;;7.40;6.70;;;;;;;3.08;100.00;99048.30;87225;267;25255;-65
2024/01/25 02:25:32;;;;;;;8.90;6.20;;;;;;;3.14;100.00;99049.48;87051;266;136642;-66
2024/01/25 02:27:38;;;;;;;6.80;5.50;;;;;;;3.25;100.00;99049.10;87116;271;22603;-65
2024/01/25 02:29:40;;;;;;;8.80;6.90;;;;;;;3.34;100.00;99044.08;87223;271;136798;-64
2024/01/25 02:31:43;;;;;;;8.20;6.60;;;;;;;3.36;100.00;99042.15;87165;271;22574;-64
2024/01/25 02:33:45;;;;;;;8.70;6.90;;;;;;;3.33;100.00;99041.23;87162;267;136195;-66
2024/01/25 02:35:47;;;;;;;12.50;7.20;;;;;;;3.31;100.00;99040.91;87146;278;22561;-66
2024/01/25 02:37:50;;;;;;;10.60;8.10;;;;;;;3.30;100.00;99041.01;87056;271;135904;-64
2024/01/25 02:39:53;;;;;;;8.50;6.40;;;;;;;3.38;100.00;99034.32;87314;271;22566;-65
2024/01/25 02:41:54;;;;;;;13.30;7.20;;;;;;;3.49;100.00;99032.73;87257;267;137008;-64
2024/01/25 02:43:56;;;;;;;7.10;6.40;;;;;;;3.57;100.00;99030.60;87254;267;22602;-64
2024/01/25 02:45:58;;;;;;;8.70;6.00;;;;;;;3.61;100.00;99026.42;87190;271;136957;-64
2024/01/25 02:48:02;;;;;;;6.90;6.10;;;;;;;3.61;100.00;99025.73;87239;271;25221;-63
2024/01/25 02:50:05;;;;;;;8.80;6.20;;;;;;;3.59;100.00;99022.98;87239;270;22574;-65
2024/01/25 02:52:07;;;;;;;9.60;5.50;;;;;;;3.60;100.00;99021.15;87263;271;137505;-65
2024/01/25 02:54:08;;;;;;;7.40;5.50;;;;;;;3.66;100.00;99023.80;87080;274;25128;-64
2024/01/25 02:56:11;;;;;;;8.80;5.90;;;;;;;3.74;100.00;99022.94;86959;279;137073;-66
2024/01/25 02:58:12;;;;;;;8.00;4.70;;;;;;;3.79;100.00;99019.63;87074;272;24045;-65
2024/01/25 03:00:16;;;;;;;5.60;5.00;;;;;;;3.82;100.00;99018.06;87142;275;136485;-65
2024/01/25 03:02:21;;;;;;;7.00;4.60;;;;;;;3.79;100.00;99014.08;87288;275;22558;-64
2024/01/25 03:04:23;;;;;;;7.70;5.30;;;;;;;3.77;100.00;99015.00;87120;272;135873;-65
2024/01/25 03:06:27;;;;;;;6.90;5.70;;;;;;;3.73;100.00;99014.91;87181;271;23588;-65
2024/01/25 03:08:28;;;;;;;6.20;4.90;;;;;;;3.80;100.00;99011.84;87003;266;136771;-66
2024/01/25 03:10:30;;;;;;;5.20;4.50;;;;;;;3.92;100.00;99011.98;87291;274;25256;-65
2024/01/25 03:12:32;;;;;;;4.80;3.50;;;;;;;4.00;100.00;99008.95;87199;267;136562;-65
2024/01/25 03:14:34;;;;;;;4.50;3.80;;;;;;;4.01;100.00;99012.86;87200;271;22548;-65
2024/01/25 03:16:36;;;;;;;4.50;3.90;;;;;;;3.95;100.00;99010.45;86983;271;136196;-69
2024/01/25 03:18:38;;;;;;;5.80;4.90;;;;;;;3.88;100.00;99006.09;87254;267;25185;-66
2024/01/25 03:20:40;;;;;;;5.30;4.80;;;;;;;3.84;100.00;99006.78;87216;274;136002;-64
2024/01/25 03:22:44;;;;;;;5.00;3.90;;;;;;;3.89;100.00;99004.27;87384;278;22487;-63
2024/01/25 03:24:46;;;;;;;4.70;4.20;;;;;;;3.97;100.00;99004.02;87246;271;137900;-66
2024/01/25 03:26:48;;;;;;;5.00;4.50;;;;;;;4.01;100.00;99002.91;87413;271;22555;-67
2024/01/25 03:28:50;;;;;;;6.00;5.10;;;;;;;3.99;100.00;99002.60;87229;271;136331;-65
2024/01/25 03:30:52;;;;;;;4.90;4.40;;;;;;;3.96;100.00;98997.02;87295;266;24031;-66
2024/01/25 03:32:54;;;;;;;5.10;4.50;;;;;;;3.91;100.00;98998.59;87206;271;136084;-68
2024/01/25 03:34:56;;;;;;;4.70;4.30;;;;;;;3.87;100.00;98997.09;87170;271;27355;-67
2024/01/25 03:36:58;;;;;;;4.20;3.80;;;;;;;3.93;100.00;98996.13;87162;271;136811;-66
2024/01/25 03:39:00;;;;;;;3.80;3.50;;;;;;;4.03;100.00;98997.95;87303;263;22586;-67
2024/01/25 03:41:02;;;;;;;5.00;4.30;;;;;;;4.07;100.00;98997.21;87288;278;136915;-66
2024/01/25 03:43:04;;;;;;;4.60;4.20;;;;;;;4.04;100.00;98998.14;87322;278;22567;-66
2024/01/25 03:45:19;;;;;;;4.90;4.50;;;;;;;3.95;100.00;98994.63;87266;278;136344;-66
2024/01/25 03:47:22;;;;;;;4.90;4.50;;;;;;;3.89;100.00;98997.98;87361;267;22569;-67
2024/01/25 03:49:23;;;;;;;4.60;4.20;;;;;;;3.86;100.00;98990.39;87276;271;138614;-67
2024/01/25 03:51:26;;;;;;;4.50;4.10;;;;;;;3.90;100.00;98993.21;87369;267;22562;-66
2024/01/25 03:53:28;;;;;;;4.70;4.30;;;;;;;3.99;100.00;98992.35;87216;267;137989;-65
2024/01/25 03:55:29;;;;;;;5.00;4.30;;;;;;;4.06;100.00;98995.98;87188;275;24837;-66
2024/01/25 03:57:32;;;;;;;5.80;4.90;;;;;;;4.08;100.00;98997.55;87244;271;136346;-67
2024/01/25 03:59:34;;;;;;;4.90;4.10;;;;;;;4.06;100.00;98991.10;87317;279;25156;-68
2024/01/25 04:01:42;;;;;;;4.60;4.20;;;;;;;4.05;100.00;98991.70;87219;271;136283;-65
2024/01/25 04:03:46;;;;;;;5.20;4.40;;;;;;;4.02;100.00;98987.61;87307;278;22559;-65
2024/01/25 04:05:49;;;;;;;4.70;4.20;;;;;;;4.07;100.00;98991.84;87340;273;136586;-65
2024/01/25 04:07:52;;;;;;;4.60;4.10;;;;;;;4.13;100.00;98987.64;87401;269;22548;-65
2024/01/25 04:09:54;;;;;;;5.00;4.10;;;;;;;4.17;100.00;98991.42;87191;271;137720;-66
2024/01/25 04:11:56;;;;;;;4.50;4.10;;;;;;;4.15;100.00;98992.14;87145;275;24240;-65
2024/01/25 04:13:58;;;;;;;7.70;5.20;;;;;;;4.06;100.00;98990.33;87264;267;136014;-66
2024/01/25 04:16:00;;;;;;;4.20;3.70;;;;;;;3.99;100.00;98992.78;87091;279;24006;-67
2024/01/25 04:18:02;;;;;;;6.30;4.10;;;;;;;3.96;100.00;98991.20;87204;267;136327;-68
2024/01/25 04:20:05;;;;;;;5.30;4.60;;;;;;;4.01;100.00;98993.73;87280;267;136716;-66
2024/01/25 04:22:07;;;;;;;3.80;3.50;;;;;;;4.09;100.00;98995.25;87221;268;25182;-65
2024/01/25 04:24:11;;;;;;;5.80;4.30;;;;;;;4.13;100.00;98989.93;87174;271;137112;-67
2024/01/25 04:26:16;;;;;;;4.70;4.30;;;;;;;4.16;100.00;98991.20;87269;272;25234;-67
2024/01/25 04:28:17;;;;;;;3.30;3.00;;;;;;;4.13;100.00;98987.13;87239;279;136328;-66
2024/01/25 04:30:19;;;;;;;3.80;3.50;;;;;;;4.07;100.00;98986.87;87270;275;22561;-66
2024/01/25 04:32:21;;;;;;;5.00;3.50;;;;;;;4.04;100.00;98986.25;87207;271;136233;-66
2024/01/25 04:34:23;;;;;;;6.20;4.00;;;;;;;4.01;100.00;98981.22;87376;278;22563;-65
2024/01/25 04:36:25;;;;;;;4.40;4.00;;;;;;;4.07;100.00;98983.95;87358;271;136613;-67
2024/01/25 04:38:29;;;;;;;4.30;3.90;;;;;;;4.17;100.00;98984.02;87249;268;22571;-67
2024/01/25 04:40:30;;;;;;;4.40;3.90;;;;;;;4.23;100.00;98984.10;87341;271;136805;-65
2024/01/25 04:42:33;;;;;;;4.90;3.70;;;;;;;4.20;100.00;98983.95;87289;271;24737;-66
2024/01/25 04:44:35;;;;;;;4.40;4.00;;;;;;;4.13;100.00;98980.42;87081;276;136384;-68
2024/01/25 04:46:39;;;;;;;3.60;3.40;;;;;;;4.07;100.00;98979.33;87418;271;22655;-71
2024/01/25 04:48:43;;;;;;;6.60;4.50;;;;;;;4.03;100.00;98978.70;87247;267;136137;-64
2024/01/25 04:50:46;;;;;;;5.80;4.10;;;;;;;4.07;100.00;98973.35;87318;267;22568;-67
2024/01/25 04:52:47;;;;;;;3.50;3.20;;;;;;;4.15;100.00;98976.31;87171;271;138368;-66
2024/01/25 04:54:49;;;;;;;4.00;3.80;;;;;;;4.19;100.00;98977.27;87311;279;25189;-66
2024/01/25 04:56:51;;;;;;;4.00;3.70;;;;;;;4.20;100.00;98974.55;87282;278;136609;-66
2024/01/25 04:58:53;;;;;;;4.30;3.80;;;;;;;4.15;100.00;98973.48;87368;266;22651;-66
2024/01/25 05:00:55;;;;;;;4.10;3.60;;;;;;;4.12;100.00;98968.20;87216;269;137620;-67
2024/01/25 05:02:57;;;;;;;4.40;4.00;;;;;;;4.08;100.00;98965.49;86889;278;22557;-67
2024/01/25 05:04:59;;;;;;;4.30;4.00;;;;;;;4.05;100.00;98967.73;87151;278;135987;-67
2024/01/25 05:07:01;;;;;;;5.20;4.10;;;;;;;4.10;100.00;98962.25;87126;270;25188;-68
2024/01/25 05:09:03;;;;;;;4.40;4.10;;;;;;;4.15;100.00;98968.04;87175;278;138301;-67
2024/01/25 05:11:05;;;;;;;3.60;3.40;;;;;;;4.14;100.00;98966.31;87113;279;22580;-68
2024/01/25 05:13:09;;;;;;;4.30;3.80;;;;;;;4.13;100.00;98966.75;87067;267;136385;-66
2024/01/25 05:15:12;;;;;;;4.20;3.90;;;;;;;4.10;100.00;98963.91;87321;271;25079;-68
2024/01/25 05:17:14;;;;;;;5.80;4.30;;;;;;;4.05;100.00;98960.56;86956;267;136541;-65
2024/01/25 05:19:15;;;;;;;5.80;4.20;;;;;;;4.01;100.00;98959.08;87207;266;22577;-68
2024/01/25 05:21:17;;;;;;;6.00;5.20;;;;;;;4.01;100.00;98959.67;87088;269;136028;-65
2024/01/25 05:23:19;;;;;;;8.50;4.60;;;;;;;4.08;100.00;98960.99;87108;269;22630;-66
2024/01/25 05:25:21;;;;;;;5.50;4.60;;;;;;;4.18;100.00;98961.84;86914;266;139485;-67
2024/01/25 05:27:23;;;;;;;4.00;3.70;;;;;;;4.25;100.00;98961.86;87327;271;25082;-67
2024/01/25 05:29:25;;;;;;;7.90;4.70;;;;;;;4.27;100.00;98962.70;87115;267;136222;-67
2024/01/25 05:31:27;;;;;;;6.40;5.10;;;;;;;4.23;100.00;98963.37;87134;271;25197;-68
2024/01/25 05:33:28;;;;;;;6.10;5.40;;;;;;;4.20;100.00;98961.34;86895;278;136318;-67
2024/01/25 05:35:30;;;;;;;8.00;5.30;;;;;;;4.15;100.00;98968.57;87101;274;22564;-68
2024/01/25 05:37:33;;;;;;;5.90;4.60;;;;;;;4.20;100.00;98966.11;87062;271;136819;-69
2024/01/25 05:39:35;;;;;;;4.00;3.70;;;;;;;4.29;100.00;98963.81;87196;278;24075;-69
2024/01/25 05:41:37;;;;;;;5.30;4.70;;;;;;;4.36;100.00;98962.81;87020;278;136615;-68
2024/01/25 05:43:39;;;;;;;7.40;3.90;;;;;;;4.35;100.00;98963.54;87220;278;22587;-68
2024/01/25 05:45:40;;;;;;;5.80;5.20;;;;;;;4.30;100.00;98964.67;87047;278;136274;-67
2024/01/25 05:47:42;;;;;;;7.20;5.60;;;;;;;4.25;100.00;98965.84;87191;267;22581;-69
2024/01/25 05:49:45;;;;;;;5.00;4.60;;;;;;;4.23;100.00;98965.80;86982;278;137406;-67
2024/01/25 05:51:46;;;;;;;5.70;5.10;;;;;;;4.30;100.00;98963.11;87140;275;22655;-71
2024/01/25 05:53:48;;;;;;;6.00;5.10;;;;;;;4.38;100.00;98968.98;87128;263;137965;-67
2024/01/25 05:55:51;;;;;;;5.50;4.50;;;;;;;4.41;100.00;98969.91;87037;271;22550;-66
2024/01/25 05:57:53;;;;;;;5.50;5.00;;;;;;;4.39;100.00;98968.88;86862;271;137190;-69
2024/01/25 05:59:55;;;;;;;4.90;4.50;;;;;;;4.36;100.00;98967.86;87053;275;22571;-68
2024/01/25 06:01:57;;;;;;;5.90;5.30;;;;;;;4.30;100.00;98962.24;87513;271;137144;-69
2024/01/25 06:03:59;;;;;;;7.20;5.50;;;;;;;4.27;100.00;98960.70;87404;271;22578;-69
2024/01/25 06:06:01;;;;;;;6.90;4.80;;;;;;;4.32;100.00;98964.07;87102;270;136635;-68
2024/01/25 06:08:03;;;;;;;6.40;5.10;;;;;;;4.43;100.00;98963.29;87076;267;137126;-68
2024/01/25 06:10:07;;;;;;;7.00;5.20;;;;;;;4.47;100.00;98965.83;87253;274;22570;-72
2024/01/25 06:12:09;;;;;;;6.50;5.00;;;;;;;4.41;100.00;98960.94;87264;272;136332;-67
2024/01/25 06:14:11;;;;;;;6.50;5.80;;;;;;;4.32;100.00;98961.27;87135;275;22551;-67
2024/01/25 06:16:13;;;;;;;7.00;6.10;;;;;;;4.28;100.00;98963.02;86825;279;136457;-67
2024/01/25 06:18:15;;;;;;;12.40;8.70;;;;;;;4.24;100.00;98958.58;87090;267;22565;-70
2024/01/25 06:20:17;;;;;;;9.20;6.50;;;;;;;4.24;100.00;98956.05;86803;270;137304;-67
2024/01/25 06:22:19;;;;;;;9.60;6.80;;;;;;;4.30;100.00;98953.28;87107;269;22564;-67
2024/01/25 06:24:22;;;;;;;6.80;5.10;;;;;;;4.33;100.00;98957.66;87154;278;136875;-68
2024/01/25 06:26:23;;;;;;;8.70;6.70;;;;;;;4.36;100.00;98954.86;87170;271;24058;-67
2024/01/25 06:28:25;;;;;;;6.80;5.90;;;;;;;4.36;100.00;98958.43;87256;274;136295;-68
2024/01/25 06:30:27;;;;;;;7.80;7.00;;;;;;;4.30;100.00;98953.28;87181;270;25239;-67
2024/01/25 06:32:29;;;;;;;10.30;7.10;;;;;;;4.24;100.00;98951.89;86958;271;136292;-68
2024/01/25 06:34:31;;;;;;;9.10;7.00;;;;;;;4.24;100.00;98950.77;87128;271;22564;-68
2024/01/25 06:36:33;;;;;;;11.10;7.20;;;;;;;4.33;100.00;98952.52;87014;274;136562;-67
2024/01/25 06:38:35;;;;;;;10.00;6.20;;;;;;;4.45;100.00;98950.81;87055;272;24174;-72
2024/01/25 06:40:38;;;;;;;7.20;6.00;;;;;;;4.52;100.00;98951.70;86877;272;138026;-67
2024/01/25 06:42:42;;;;;;;8.60;6.70;;;;;;;4.54;100.00;98948.52;87427;270;22572;-68
2024/01/25 06:44:45;;;;;;;8.90;7.50;;;;;;;4.52;100.00;98949.43;87057;278;137742;-68
2024/01/25 06:46:47;;;;;;;8.90;6.90;;;;;;;4.51;100.00;98945.92;87131;278;24049;-67
2024/01/25 06:48:50;;;;;;;7.50;6.30;;;;;;;4.50;100.00;98943.52;86974;271;136343;-70
2024/01/25 06:50:53;;;;;;;6.30;5.70;;;;;;;4.57;100.00;98945.52;87086;271;22577;-66
2024/01/25 06:52:55;;;;;;;8.70;6.30;;;;;;;4.68;100.00;98943.86;86816;268;136568;-68
2024/01/25 06:54:57;;;;;;;7.40;6.20;;;;;;;4.74;100.00;98943.27;86991;279;25082;-70
2024/01/25 06:56:59;;;;;;;6.00;5.40;;;;;;;4.74;100.00;98949.30;86928;272;135998;-71
2024/01/25 06:59:01;;;;;;;6.30;5.20;;;;;;;4.66;100.00;98948.84;87188;275;22568;-70
2024/01/25 07:01:04;;;;;;;6.70;5.90;;;;;;;4.59;100.00;98950.17;87353;266;136177;-70
2024/01/25 07:03:07;;;;;;;9.10;6.50;;;;;;;4.56;100.00;98950.08;87164;270;22550;-69
2024/01/25 07:05:10;;;;;;;8.80;5.80;;;;;;;4.63;100.00;98951.85;87196;270;136625;-71
2024/01/25 07:07:12;;;;;;;7.20;5.30;;;;;;;4.75;100.00;98945.16;87335;275;24203;-70
2024/01/25 07:09:14;;;;;;;7.50;5.50;;;;;;;4.80;100.00;98947.83;87322;278;138209;-71
2024/01/25 07:11:17;;;;;;;7.50;6.50;;;;;;;4.83;100.00;98947.95;87019;272;25319;-68
2024/01/25 07:13:20;;;;;;;9.00;6.70;;;;;;;4.82;100.00;98947.24;87124;274;135826;-69
2024/01/25 07:15:23;;;;;;;7.70;6.80;;;;;;;4.79;100.00;98943.48;87167;271;24878;-66
2024/01/25 07:17:25;;;;;;;7.90;6.50;;;;;;;4.77;100.00;98940.09;86880;271;136510;-68
2024/01/25 07:19:26;;;;;;;7.00;6.30;;;;;;;4.79;100.00;98942.86;87026;271;22647;-69
2024/01/25 07:21:32;;;;;;;8.30;6.10;;;;;;;4.90;100.00;98939.83;87142;267;138084;-70
2024/01/25 07:23:34;;;;;;;;;;;;;;;5.00;100.00;98940.64;87248;267;22549;-69
2024/01/25 07:25:36;;;;;;;;;;;;;;;5.03;100.00;98942.95;87139;271;123392;-69
2024/01/25 07:27:39;;;;;;;;;;;;;;;5.06;100.00;98945.43;87142;274;22532;-68
2024/01/25 07:29:44;;;;;;;;;;;;;;;5.05;100.00;98944.09;87053;271;122826;-70
2024/01/25 07:31:45;;;;;;;;;;;;;;;5.04;100.00;98943.06;87238;271;22800;-69
2024/01/25 07:33:47;;;;;;;;;;;;;;;5.02;100.00;98938.13;87066;267;123559;-69
2024/01/25 07:35:49;;;;;;;;;;;;;;;5.01;100.00;98933.32;86558;278;752785;-67
2024/01/25 07:37:51;;;;;;;;;;;;;;;4.98;100.00;98936.86;86738;268;123396;-70
2024/01/25 07:39:53;;;;;;;;;;;;;;;4.97;100.00;98938.97;87091;271;23091;-69
2024/01/25 07:41:56;;;;;;;;;;;;;;;4.95;100.00;98936.17;87041;274;122419;-71
2024/01/25 07:43:57;;;;;;;;;;;;;;;4.98;100.00;98932.64;87189;263;26300;-69
2024/01/25 07:45:59;;;;;;;;;;;;;;;5.10;100.00;98939.44;90113;264;122503;-70
2024/01/25 07:48:01;;;;;;;;;;;;;;;5.16;100.00;98939.05;90007;267;22384;-70
2024/01/25 07:50:15;;;;;;;;;;;;;;;5.17;100.00;98937.39;88066;269;25106;-68
2024/01/25 07:52:18;;;;;;;;;;;;;;;5.19;100.00;98932.90;88606;267;123767;-66
2024/01/25 07:54:20;;;;;;;;;;;;;;;5.20;100.00;98934.23;87657;274;22524;-67
2024/01/25 07:56:22;;;;;;;;;;;;;;;5.17;100.00;98931.34;87286;263;122624;-69
2024/01/25 07:58:23;;;;;;;;;;;;;;;5.18;100.00;98937.32;87239;271;22596;-69
2024/01/25 08:00:25;;;;;;;;;;;;;;;5.15;100.00;98940.09;86927;272;122351;-72
2024/01/25 08:02:27;;;;;;;;;;;;;;;5.12;100.00;98937.62;87257;272;22536;-68
2024/01/25 08:04:29;;;;;;;;;;;;;;;5.10;100.00;98937.56;87159;272;122490;-69
2024/01/25 08:06:31;;;;;;;;;;;;;;;5.07;100.00;98940.02;87297;271;22693;-68
2024/01/25 08:08:33;;;;;;;;;;;;;;;5.04;100.00;98939.86;87252;271;122546;-69
2024/01/25 08:10:35;;;;;;;;;;;;;;;4.99;100.00;98937.25;87217;271;23709;-70
2024/01/25 08:12:39;;;;;;;;;;;;;;;5.02;100.00;98937.76;87059;267;122669;-69
2024/01/25 08:14:48;;;;;;;;;;;;;;;5.11;100.00;98940.02;87263;267;22550;-69
2024/01/25 08:16:50;;;;;;;;;;;;;;;5.17;100.00;98936.46;87167;267;124211;-71
2024/01/25 08:18:53;;;;;;;;;;;;;;;5.21;100.00;98942.35;87196;271;22535;-69
2024/01/25 08:20:56;;;;;;;;;;;;;;;5.24;100.00;98940.32;87177;275;123143;-68
2024/01/25 08:22:58;;;;;;;;;;;;;;;5.24;100.00;98944.95;87169;271;22554;-64
2024/01/25 08:25:00;;;;;;;;;;;;;;;5.23;100.00;98942.58;87063;263;122681;-64
2024/01/25 08:27:02;;;;;;;;;;;;;;;5.22;100.00;98938.73;87190;272;22539;-66
2024/01/25 08:29:03;;;;;;;;;;;;;;;5.18;100.00;98939.65;87079;272;122915;-61
2024/01/25 08:31:05;;;;;;;;;;;;;;;5.15;100.00;98943.31;87277;275;22539;-68
2024/01/25 08:33:07;;;;;;;;;;;;;;;5.20;100.00;98940.18;86932;268;124584;-69
2024/01/25 08:35:10;;;;;;;;;;;;;;;5.29;100.00;98938.60;87096;271;25200;-67
2024/01/25 08:37:12;;;;;;;;;;;;;;;5.34;100.00;98943.02;87154;270;123115;-66
2024/01/25 08:39:15;;;;;;;;;;;;;;;5.37;100.00;98941.79;87297;267;24010;-69
2024/01/25 08:41:17;;;;;;;;;;;;;;;5.32;100.00;98940.98;87288;271;122707;-66
2024/01/25 08:43:19;;;;;;;;;;;;;;;5.26;100.00;98939.48;87362;267;22565;-67
2024/01/25 08:45:21;;;;;;;;;;;;;;;5.21;100.00;98942.39;87603;274;122697;-68
2024/01/25 08:47:23;;;;;;;;;;;;;;;5.14;100.00;98939.55;87373;267;22568;-67
2024/01/25 08:49:25;;;;;;;;;;;;;;;5.11;100.00;98940.30;87220;270;122496;-67
2024/01/25 08:51:27;;;;;;;;;;;;;;;5.15;100.00;98938.88;87374;271;25191;-69
2024/01/25 08:53:29;;;;;;;;;;;;;;;5.20;100.00;98936.98;87300;278;123187;-67
2024/01/25 08:55:30;;;;;;;;;;;;;;;5.25;100.00;98937.92;87404;274;22556;-70
2024/01/25 08:57:33;;;;;;;;;;;;;;;5.27;100.00;98935.95;87375;271;122840;-68
2024/01/25 08:59:37;;;;;;;;;;;;;;;5.23;100.00;98938.42;87372;267;22554;-70
2024/01/25 09:01:39;;;;;;;;;;;;;;;5.18;100.00;98939.18;87066;273;122187;-67
2024/01/25 09:03:41;;;;;;;;;;;;;;;5.17;100.00;98937.15;87280;271;22554;-68
2024/01/25 09:05:46;;;;;;;;;;;;;;;5.17;100.00;98937.72;87243;267;122486;-69
2024/01/25 09:07:50;;;;;;;;;;;;;;;5.25;100.00;98935.89;87434;271;22529;-66
2024/01/25 09:09:52;;;;;;;;;;;;;;;5.35;100.00;98934.35;87221;275;123166;-66
2024/01/25 09:11:54;;;;;;;;;;;;;;;5.38;100.00;98928.33;87131;280;22543;-68
2024/01/25 09:13:56;;;;;;;;;;;;;;;5.40;100.00;98930.71;87139;271;123258;-67
2024/01/25 09:15:58;;;;;;;;;;;;;;;5.42;100.00;98928.20;87282;271;24487;-67
2024/01/25 09:18:00;;;;;;;;;;;;;;;5.39;100.00;98926.79;87301;267;122268;-66
2024/01/25 09:20:03;;;;;;;;;;;;;;;5.38;100.00;98928.85;87306;278;25196;-68
2024/01/25 09:22:07;;;;;;;;;;;;;;;5.40;100.00;98929.98;87245;271;22549;-68
2024/01/25 09:24:09;;;;;;;;;;;;;;;5.42;100.00;98926.09;87488;271;123170;-66
2024/01/25 09:26:11;;;;;;;;;;;;;;;5.52;100.00;98919.52;87216;271;22632;-68
2024/01/25 09:28:13;;;;;;;;;;;;;;;5.62;100.00;98918.73;87275;274;123632;-68
2024/01/25 09:30:15;;;;;;;;;;;;;;;5.65;100.00;98918.84;87286;267;22554;-69
2024/01/25 09:32:17;;;;;;;;;;;;;;;5.64;100.00;98916.63;87153;272;122777;-69
2024/01/25 09:34:19;;;;;;;;;;;;;;;5.54;100.00;98915.78;87404;271;22568;-69
2024/01/25 09:36:21;;;;;;;;;;;;;;;5.43;100.00;98914.52;87198;267;122623;-66
2024/01/25 09:38:23;;;;;;;;;;;;;;;5.36;100.00;98919.20;87412;267;22549;-70
2024/01/25 09:40:25;;;;;;;;;;;;;;;5.33;100.00;98922.44;87188;271;123876;-70
2024/01/25 09:42:27;;;;;;;;;;;;;;;5.33;100.00;98921.02;87497;275;22539;-71
2024/01/25 09:44:29;;;;;;;;;;;;;;;5.38;100.00;98918.86;87105;271;124359;-69
2024/01/25 09:46:31;;;;;;;;;;;;;;;5.47;100.00;98913.95;87303;271;22635;-70
2024/01/25 09:48:33;;;;;;;;;;;;;;;5.51;100.00;98911.54;87190;273;122944;-70
2024/01/25 09:50:37;;;;;;;;;;;;;;;5.51;100.00;98909.73;87415;271;22536;-71
2024/01/25 09:52:39;;;;;;;;;;;;;;;5.54;100.00;98906.71;87409;274;124255;-69